Latest Weather Observations for Mandurah

IDW60801

Issued at 11:32 pm WST Sunday 26 April 2015 (issued every 30 minutes, with the page automatically refreshed every 10 minutes)

About weather observations | Map of weather stations | Latest weather observations for WA | Other Formats
Station Details ID: 009977 Name: MANDURAH Lat: -32.52 Lon: 115.71 Height: 3.0 m
Data from the previous 72 hours. | See also: Recent months at Mandurah
Date/Time
WST
Temp
°C
App
Temp
°C
Dew
Point
Rel
Hum
%
Delta-T
°C
Wind Press
QNH
hPa
Press
MSL
hPa
Rain
since 9 am
mm
Dir
 
Spd
km/h
Gust
km/h
Spd
kts
Gust
kts
26/11:30pm 15.3 12.0 4.7 49 4.9 ESE 11 13 6 7 1024.6 1024.6 0.0
26/11:00pm 15.4 12.1 4.8 49 4.9 ESE 11 15 6 8 1024.9 1024.9 0.0
26/10:30pm 15.7 12.4 4.4 47 5.3 ESE 11 13 6 7 1025.0 1025.0 0.0
26/10:00pm 15.9 13.0 4.9 48 5.2 ESE 9 15 5 8 1025.0 1025.0 0.0
26/09:30pm 16.4 13.2 5.1 47 5.4 ESE 11 15 6 8 1024.9 1024.9 0.0
26/09:00pm 16.7 14.2 5.0 46 5.5 ESE 7 13 4 7 1024.9 1024.9 0.0
26/08:30pm 17.2 14.8 5.2 45 5.8 ESE 7 11 4 6 1024.8 1024.8 0.0
26/08:00pm 17.9 15.1 5.2 43 6.1 ESE 9 13 5 7 1024.5 1024.5 0.0
26/07:30pm 18.5 15.7 5.0 41 6.5 ESE 9 11 5 6 1024.3 1024.3 0.0
26/07:00pm 19.1 16.6 4.8 39 6.9 ESE 7 11 4 6 1024.1 1024.1 0.0
26/06:30pm 20.0 17.5 4.9 37 7.3 ESE 7 13 4 7 1023.8 1023.8 0.0
26/06:00pm 21.2 18.2 4.3 33 8.2 E 9 17 5 9 1023.4 1023.4 0.0
26/05:30pm 22.6 19.2 4.2 30 9.0 E 11 19 6 10 1023.2 1023.2 0.0
26/05:00pm 23.6 19.4 4.0 28 9.6 ESE 15 22 8 12 1023.1 1023.1 0.0
26/04:30pm 23.9 20.6 4.3 28 9.7 E 11 22 6 12 1023.0 1023.0 0.0
26/04:00pm 24.1 20.5 5.0 29 9.5 ESE 13 20 7 11 1023.0 1023.0 0.0
26/03:30pm 24.5 21.3 5.3 29 9.7 E 11 20 6 11 1023.0 1023.0 0.0
26/03:00pm 24.8 22.1 5.6 29 9.7 E 9 19 5 10 1023.1 1023.1 0.0
26/02:30pm 25.0 22.6 5.2 28 10.0 E 7 20 4 11 1023.2 1023.2 0.0
26/02:00pm 25.0 21.8 5.2 28 10.0 ENE 11 19 6 10 1023.4 1023.4 0.0
26/01:30pm 24.7 21.4 4.5 27 10.1 E 11 17 6 9 1023.5 1023.5 0.0
26/01:00pm 24.5 20.9 4.8 28 9.8 NE 13 24 7 13 1023.7 1023.7 0.0
26/12:30pm 23.4 19.9 7.1 35 8.5 NNE 15 20 8 11 1024.2 1024.2 0.0
26/12:00pm 22.9 19.0 7.1 36 8.1 NE 17 22 9 12 1024.8 1024.8 0.0
26/11:30am 22.5 18.6 7.1 37 7.9 NE 17 28 9 15 1025.2 1025.2 0.0
26/11:00am 22.0 17.5 6.3 36 7.9 NE 19 26 10 14 1025.6 1025.6 0.0
26/10:30am 21.2 17.4 7.4 41 7.1 NE 17 24 9 13 1025.9 1025.9 0.0
26/10:00am 19.7 15.8 7.1 44 6.3 ENE 17 28 9 15 1026.2 1026.2 0.0
26/09:30am 18.7 15.1 6.9 46 5.9 ENE 15 26 8 14 1026.3 1026.3 0.0
26/09:00am 17.1 14.3 6.9 51 5.0 ENE 11 24 6 13 1026.4 1026.4 0.0
26/08:30am 14.8 12.4 7.1 60 3.8 E 9 15 5 8 1026.4 1026.4 0.0
26/08:00am 13.5 10.7 7.1 65 3.1 E 11 15 6 8 1026.1 1026.1 0.0
26/07:30am 12.7 10.3 7.0 68 2.7 E 9 15 5 8 1025.8 1025.8 0.0
26/07:00am 12.5 9.7 6.8 68 2.7 E 11 20 6 11 1025.6 1025.6 0.0
26/06:30am 12.7 9.5 6.7 67 2.9 E 13 19 7 10 1025.5 1025.5 0.0
26/06:00am 13.0 9.8 6.8 66 3.0 E 13 20 7 11 1025.4 1025.4 0.0
26/05:30am 13.2 9.2 6.8 65 3.1 E 17 24 9 13 1025.3 1025.3 0.0
26/05:00am 13.4 9.8 6.7 64 3.2 E 15 24 8 13 1025.3 1025.3 0.0
26/04:30am 13.4 10.2 6.7 64 3.2 E 13 20 7 11 1025.1 1025.1 0.0
26/04:00am 13.5 10.6 6.6 63 3.3 E 11 19 6 10 1025.0 1025.0 0.0
26/03:30am 13.7 10.8 6.3 61 3.5 E 11 22 6 12 1024.9 1024.9 0.0
26/03:00am 13.8 10.8 6.2 60 3.6 E 11 17 6 9 1024.9 1024.9 0.0
26/02:30am 13.7 11.1 6.3 61 3.5 ESE 9 15 5 8 1025.1 1025.1 0.0
26/02:00am 14.0 11.4 6.1 59 3.7 ESE 9 15 5 8 1025.2 1025.2 0.0
26/01:30am 14.5 11.1 6.1 57 4.0 ESE 13 20 7 11 1025.1 1025.1 0.0
26/01:00am 14.3 12.0 5.9 57 4.0 ESE 7 11 4 6 1025.0 1025.0 0.0
26/12:30am 15.1 11.6 5.6 53 4.5 E 13 20 7 11 1025.0 1025.0 0.0
26/12:00am 14.6 12.5 5.7 55 4.2 E 6 11 3 6 1025.0 1025.0 0.0
 
Date/Time
WST
Temp
°C
App
Temp
°C
Dew
Point
Rel
Hum
%
Delta-T
°C
Wind Press
QNH
hPa
Press
MSL
hPa
Rain
since 9 am
mm
Dir
 
Spd
km/h
Gust
km/h
Spd
kts
Gust
kts
25/11:30pm 14.7 12.0 5.8 55 4.2 ESE 9 11 5 6 1025.1 1025.1 0.0
25/11:00pm 15.0 12.3 5.8 54 4.4 ESE 9 15 5 8 1025.3 1025.3 0.0
25/10:30pm 15.6 12.6 6.1 53 4.6 ESE 11 17 6 9 1025.5 1025.5 0.0
25/10:00pm 15.7 12.8 6.4 54 4.5 ESE 11 17 6 9 1025.6 1025.6 0.0
25/09:30pm 15.6 12.6 6.1 53 4.6 ESE 11 17 6 9 1025.6 1025.6 0.0
25/09:00pm 16.0 13.0 5.9 51 4.8 SE 11 15 6 8 1025.4 1025.4 0.0
25/08:30pm 16.5 13.8 5.5 48 5.3 SE 9 11 5 6 1025.2 1025.2 0.0
25/08:00pm 17.2 14.5 5.5 46 5.6 SE 9 13 5 7 1025.0 1025.0 0.0
25/07:30pm 17.6 14.8 5.2 44 6.0 SE 9 15 5 8 1024.8 1024.8 0.0
25/07:00pm 17.5 15.1 5.1 44 5.9 ESE 7 11 4 6 1024.6 1024.6 0.0
25/06:30pm 18.0 15.5 4.9 42 6.3 ESE 7 9 4 5 1024.4 1024.4 0.0
25/06:00pm 19.2 16.6 4.2 37 7.1 E 7 13 4 7 1024.0 1024.0 0.0
25/05:30pm 20.2 16.8 3.9 34 7.8 E 11 17 6 9 1023.9 1023.9 0.0
25/05:00pm 21.0 17.2 4.1 33 8.1 ENE 13 20 7 11 1023.7 1023.7 0.0
25/04:30pm 21.7 17.6 4.3 32 8.5 E 15 22 8 12 1023.4 1023.4 0.0
25/04:00pm 21.8 17.2 3.9 31 8.6 ENE 17 26 9 14 1023.5 1023.5 0.0
25/03:30pm 22.3 18.5 3.9 30 8.9 E 13 24 7 13 1023.4 1023.4 0.0
25/03:00pm 22.6 18.7 5.5 33 8.5 E 15 22 8 12 1023.3 1023.3 0.0
25/02:30pm 23.0 19.2 5.9 33 8.7 ESE 15 24 8 13 1023.5 1023.5 0.0
25/02:00pm 21.5 17.7 5.8 36 7.8 E 15 26 8 14 1023.7 1023.7 0.0
25/01:30pm 22.5 18.7 5.9 34 8.4 ENE 15 24 8 13 1024.1 1024.1 0.0
25/01:00pm 22.2 18.7 5.6 34 8.3 ENE 13 22 7 12 1024.5 1024.5 0.0
25/12:30pm 22.2 18.7 5.6 34 8.3 ENE 13 20 7 11 1025.0 1025.0 0.0
25/12:00pm 21.0 17.7 6.5 39 7.3 ENE 13 24 7 13 1025.7 1025.7 0.0
25/11:30am 20.5 16.8 6.1 39 7.2 E 15 22 8 12 1026.1 1026.1 0.0
25/11:00am 19.5 15.1 6.6 43 6.4 ENE 19 30 10 16 1026.5 1026.5 0.0
25/10:30am 18.7 14.0 6.2 44 6.2 ENE 20 32 11 17 1027.0 1027.0 0.0
25/10:00am 17.8 12.7 6.0 46 5.7 ENE 22 37 12 20 1027.2 1027.2 0.0
25/09:30am 17.2 12.3 6.7 50 5.2 ENE 22 37 12 20 1027.7 1027.7 0.0
25/09:00am 15.7 12.9 7.0 56 4.3 E 11 19 6 10 1027.9 1027.9 0.0
25/08:30am 13.8 11.4 7.1 64 3.3 ESE 9 15 5 8 1028.0 1028.0 0.0
25/08:00am 12.8 10.4 7.0 68 2.8 ESE 9 13 5 7 1027.7 1027.7 0.0
25/07:30am 12.3 10.2 6.8 69 2.6 ESE 7 11 4 6 1027.4 1027.4 0.0
25/07:00am 12.3 10.2 6.8 69 2.6 SE 7 11 4 6 1027.0 1027.0 0.0
25/06:30am 12.5 10.4 6.8 68 2.7 SE 7 9 4 5 1026.7 1026.7 0.0
25/06:00am 12.7 10.2 6.7 67 2.9 ESE 9 15 5 8 1026.6 1026.6 0.0
25/05:30am 12.8 10.6 6.4 65 3.0 E 7 11 4 6 1026.3 1026.3 0.0
25/05:00am 13.1 10.6 6.5 64 3.1 ESE 9 13 5 7 1026.2 1026.2 0.0
25/04:30am 13.5 10.6 6.6 63 3.3 ESE 11 20 6 11 1026.0 1026.0 0.0
25/04:00am 13.8 11.2 6.2 60 3.6 ESE 9 17 5 9 1025.9 1025.9 0.0
25/03:30am 14.2 11.3 6.3 59 3.8 E 11 17 6 9 1025.7 1025.7 0.0
25/03:00am 14.5 10.8 6.3 58 3.9 E 15 26 8 14 1025.6 1025.6 0.0
25/02:30am 14.7 11.7 6.0 56 4.2 E 11 26 6 14 1025.7 1025.7 0.0
25/02:00am 14.9 11.6 6.2 56 4.2 E 13 20 7 11 1025.9 1025.9 0.0
25/01:30am 15.0 12.0 6.0 55 4.3 E 11 17 6 9 1026.1 1026.1 0.0
25/01:00am 15.5 11.7 6.0 53 4.5 E 15 24 8 13 1026.1 1026.1 0.0
25/12:30am 15.5 12.1 6.0 53 4.6 E 13 22 7 12 1026.0 1026.0 0.0
25/12:00am 15.4 12.4 5.9 53 4.5 E 11 19 6 10 1025.9 1025.9 0.0
 
Date/Time
WST
Temp
°C
App
Temp
°C
Dew
Point
Rel
Hum
%
Delta-T
°C
Wind Press
QNH
hPa
Press
MSL
hPa
Rain
since 9 am
mm
Dir
 
Spd
km/h
Gust
km/h
Spd
kts
Gust
kts
24/11:30pm 15.4 13.1 5.9 53 4.6 E 7 15 4 8 1026.1 1026.1 0.0
24/11:00pm 15.4 12.7 5.6 52 4.6 ESE 9 15 5 8 1026.2 1026.2 0.0
24/10:30pm 15.8 12.4 6.0 52 4.7 ESE 13 19 7 10 1026.3 1026.3 0.0
24/10:00pm 16.1 12.7 6.0 51 4.9 ESE 13 20 7 11 1026.5 1026.5 0.0
24/09:30pm 16.3 12.9 5.9 50 5.0 ESE 13 20 7 11 1026.7 1026.7 0.0
24/09:00pm 16.4 13.7 5.7 49 5.1 SE 9 15 5 8 1026.7 1026.7 0.0
24/08:30pm 16.8 14.4 5.4 47 5.5 ESE 7 9 4 5 1026.8 1026.8 0.0
24/08:00pm 17.2 14.4 5.2 45 5.7 ESE 9 13 5 7 1026.8 1026.8 0.0
24/07:30pm 17.5 13.5 5.1 44 5.9 ESE 15 20 8 11 1026.5 1026.5 0.0
24/07:00pm 17.7 14.2 5.3 44 5.9 ESE 13 19 7 10 1026.3 1026.3 0.0
24/06:30pm 17.9 13.9 4.8 42 6.3 ESE 15 20 8 11 1026.1 1026.1 0.0
24/06:00pm 18.1 13.7 5.0 42 6.3 ESE 17 26 9 14 1025.7 1025.7 0.0
24/05:30pm 18.4 14.5 5.3 42 6.4 ESE 15 22 8 12 1025.6 1025.6 0.0
24/05:00pm 18.8 14.9 5.3 41 6.5 ESE 15 20 8 11 1025.5 1025.5 0.0
24/04:30pm 19.1 14.9 5.6 41 6.6 SE 17 22 9 12 1025.6 1025.6 0.0
24/04:00pm 19.5 14.8 5.2 39 6.9 ESE 19 24 10 13 1025.7 1025.7 0.0
24/03:30pm 20.4 16.0 4.8 36 7.6 ESE 17 32 9 17 1025.9 1025.9 0.0
24/03:00pm 20.7 15.7 4.7 35 7.7 ESE 20 32 11 17 1025.6 1025.6 0.0
24/02:30pm 20.1 15.2 5.0 37 7.4 ESE 20 33 11 18 1025.6 1025.6 0.0
24/02:00pm 19.9 15.5 4.8 37 7.3 ESE 17 24 9 13 1025.8 1025.8 0.0
24/01:30pm 21.2 17.6 5.1 35 7.9 ESE 13 22 7 12 1026.2 1026.2 0.0
24/01:00pm 20.1 15.6 4.2 35 7.6 ESE 17 28 9 15 1026.6 1026.6 0.0
24/12:30pm 19.2 14.8 4.9 39 6.9 ESE 17 28 9 15 1027.2 1027.2 0.0
24/12:00pm 19.5 15.2 5.2 39 6.9 ESE 17 28 9 15 1027.5 1027.5 0.0
24/11:30am 18.3 13.4 5.2 42 6.3 ESE 20 33 11 18 1028.0 1028.0 0.0
24/11:00am 17.9 12.9 4.8 42 6.2 ESE 20 32 11 17 1028.4 1028.4 0.0
24/10:30am 17.2 12.8 4.5 43 6.0 ESE 17 26 9 14 1029.0 1029.0 0.0
24/10:00am 16.4 11.3 4.1 44 5.7 E 20 32 11 17 1029.4 1029.4 0.0
24/09:30am 15.8 12.1 4.2 46 5.4 E 13 24 7 13 1029.6 1029.6 0.0
24/09:00am 14.1 11.5 4.1 51 4.5 E 7 13 4 7 1029.9 1029.9 0.0
24/08:30am 12.4 10.3 3.9 56 3.8 ESE 4 7 2 4 1029.8 1029.8 0.0
24/08:00am 11.9 8.9 4.2 59 3.4 SE 9 13 5 7 1029.5 1029.5 0.0
24/07:30am 11.3 8.7 4.1 61 3.2 ESE 7 9 4 5 1029.5 1029.5 0.0
24/07:00am 11.0 8.5 4.0 62 3.1 SE 6 9 3 5 1029.2 1029.2 0.0
24/06:30am 10.8 8.2 4.3 64 2.9 ESE 7 11 4 6 1028.7 1028.7 0.0
24/06:00am 11.2 8.2 4.2 62 3.1 ESE 9 13 5 7 1028.4 1028.4 0.0
24/05:30am 11.8 8.5 4.5 61 3.3 SE 11 17 6 9 1028.2 1028.2 0.0
24/05:00am 12.1 8.0 4.6 60 3.4 ESE 15 22 8 12 1027.9 1027.9 0.0
24/04:30am 12.2 7.8 4.9 61 3.3 ESE 17 24 9 13 1027.6 1027.6 0.0
24/04:00am 12.5 8.1 5.0 60 3.4 SE 17 26 9 14 1027.6 1027.6 0.0
24/03:30am 12.6 8.3 5.3 61 3.4 SE 17 26 9 14 1027.3 1027.3 0.0
24/03:00am 12.9 8.3 5.6 61 3.4 ESE 19 32 10 17 1027.5 1027.5 0.0
24/02:30am 13.2 8.4 5.6 60 3.6 ESE 20 35 11 19 1027.6 1027.6 0.0
24/02:00am 13.6 8.9 6.0 60 3.6 ESE 20 32 11 17 1027.7 1027.7 0.0
24/01:30am 13.8 9.7 6.4 61 3.5 SE 17 22 9 12 1027.7 1027.7 0.0
24/01:00am 14.2 10.2 6.6 60 3.6 SE 17 26 9 14 1027.7 1027.7 0.0
24/12:30am 14.6 10.7 7.2 61 3.6 SE 17 26 9 14 1027.5 1027.5 0.0
24/12:00am 15.1 11.1 8.1 63 3.5 SE 19 26 10 14 1026.9 1026.9 0.0

Other Formats:

Comma delimited format used in spreadsheet applications
http://www.bom.gov.au/fwo/IDW60801/IDW60801.94605.axf

JavaScript Object Notation format (JSON) in row-major order
http://www.bom.gov.au/fwo/IDW60801/IDW60801.94605.json